TimePST,TemperatureF,Dew PointF,Humidity,Sea Level PressureIn,VisibilityMPH,Wind Direction,Wind SpeedMPH,Gust SpeedMPH,PrecipitationIn,Events,Conditions,WindDirDegrees,DateUTC
12:53 AM,35.1,33.1,92,30.20,10.0,East,5.8,-,N/A,,Clear,80,2011-11-16 08:53:00
1:53 AM,35.1,33.1,92,30.17,10.0,East,4.6,-,N/A,,Clear,90,2011-11-16 09:53:00
2:00 AM,-9999,-9999,N/A,-9999,-9999.0,North,-9999.0,-,N/A,,Unknown,0,2011-11-16 10:00:00
2:53 AM,35.1,33.1,92,30.13,10.0,East,5.8,-,N/A,,Clear,80,2011-11-16 10:53:00
3:53 AM,36.0,33.1,89,30.10,10.0,East,8.1,-,N/A,,Mostly Cloudy,80,2011-11-16 11:53:00
4:53 AM,37.0,33.1,86,30.06,10.0,ENE,9.2,-,N/A,,Mostly Cloudy,70,2011-11-16 12:53:00
5:53 AM,37.0,33.1,86,30.03,10.0,East,8.1,-,N/A,,Overcast,90,2011-11-16 13:53:00
6:53 AM,37.0,33.1,86,29.99,10.0,East,6.9,-,N/A,,Overcast,90,2011-11-16 14:53:00
7:53 AM,37.0,34.0,89,29.95,7.0,ENE,8.1,-,0.02,Rain,Light Rain,70,2011-11-16 15:53:00
8:53 AM,41.0,37.9,89,29.90,3.0,ESE,12.7,26.5,0.09,Rain,Rain,120,2011-11-16 16:53:00
9:53 AM,42.1,42.1,100,29.84,4.0,SE,10.4,21.9,0.10,Rain,Light Rain,130,2011-11-16 17:53:00
10:23 AM,42.8,42.8,100,29.81,9.0,SE,10.4,18.4,0.04,Rain,Light Rain,140,2011-11-16 18:23:00
10:53 AM,44.1,44.1,100,29.79,10.0,SSE,15.0,25.3,0.05,Rain,Light Rain,150,2011-11-16 18:53:00
11:53 AM,46.9,46.9,100,29.72,10.0,SSE,15.0,27.6,0.01,Rain,Light Rain,150,2011-11-16 19:53:00
12:15 PM,46.4,46.4,100,29.70,1.8,SSE,13.8,27.6,0.00,Rain,Light Rain,150,2011-11-16 20:15:00
12:27 PM,46.4,46.4,100,29.68,1.2,SSE,12.7,28.8,0.02,Rain,Light Rain,150,2011-11-16 20:27:00
12:36 PM,48.2,48.2,100,29.68,1.2,SSE,12.7,26.5,0.03,Rain,Light Rain,150,2011-11-16 20:36:00
12:41 PM,48.2,48.2,100,29.68,1.8,SSE,13.8,27.6,0.04,Rain,Light Rain,160,2011-11-16 20:41:00
12:53 PM,48.0,48.0,100,29.68,1.5,SSE,11.5,25.3,0.04,Rain,Light Rain,160,2011-11-16 20:53:00
1:02 PM,48.2,48.2,100,29.66,1.8,SSE,11.5,26.5,0.01,Rain,Light Rain,160,2011-11-16 21:02:00
1:07 PM,48.2,-9999,N/A,29.66,2.0,SSE,18.4,26.5,0.01,Rain,Light Rain,150,2011-11-16 21:07:00
1:25 PM,48.2,-9999,N/A,29.65,1.5,South,12.7,24.2,0.02,Rain,Light Rain,170,2011-11-16 21:25:00
1:46 PM,50.0,-9999,N/A,29.64,1.2,South,13.8,25.3,0.04,Rain,Light Rain,170,2011-11-16 21:46:00
1:53 PM,50.0,-9999,N/A,29.64,1.2,South,13.8,26.5,0.05,Rain,Light Rain,170,2011-11-16 21:53:00
1:57 PM,50.0,-9999,N/A,29.63,1.5,SSE,15.0,33.4,0.00,Rain,Light Rain,150,2011-11-16 21:57:00
2:10 PM,50.0,-9999,N/A,29.64,1.2,South,12.7,20.7,0.01,Rain,Light Rain,190,2011-11-16 22:10:00
2:31 PM,-9999,-9999,N/A,29.64,0.8,South,15.0,26.5,0.07,Rain,Rain,180,2011-11-16 22:31:00
2:41 PM,-9999,-9999,N/A,29.64,1.0,South,11.5,35.7,0.10,Rain,Light Rain,180,2011-11-16 22:41:00
2:53 PM,-9999,-9999,N/A,29.64,0.8,South,11.5,27.6,0.12,Rain,Rain,190,2011-11-16 22:53:00
3:19 PM,-9999,-9999,N/A,29.64,1.0,South,9.2,-,0.08,Rain,Light Rain,190,2011-11-16 23:19:00
3:26 PM,-9999,-9999,N/A,29.64,0.8,SSW,5.8,16.1,0.09,Rain,Light Rain,210,2011-11-16 23:26:00
3:37 PM,-9999,-9999,N/A,29.64,1.2,SW,9.2,-,0.09,Rain,Light Rain,220,2011-11-16 23:37:00
3:41 PM,-9999,-9999,N/A,29.64,2.0,SW,6.9,-,0.10,Rain,Light Rain,220,2011-11-16 23:41:00
3:49 PM,-9999,-9999,N/A,29.64,9.0,SSW,9.2,-,0.10,,Overcast,210,2011-11-16 23:49:00
3:53 PM,-9999,-9999,N/A,29.64,10.0,SW,10.4,-,0.10,,Overcast,220,2011-11-16 23:53:00
4:00 PM,-9999,-9999,N/A,29.64,8.0,SSW,8.1,-,0.00,,Overcast,210,2011-11-17 00:00:00
4:20 PM,-9999,-9999,N/A,29.64,1.8,SSW,12.7,19.6,0.00,Rain,Light Rain,210,2011-11-17 00:20:00
4:34 PM,-9999,-9999,N/A,29.63,3.0,SSW,9.2,-,0.01,Rain,Light Rain,210,2011-11-17 00:34:00
4:53 PM,-9999,-9999,N/A,29.62,4.0,SSW,11.5,20.7,0.01,,Haze,210,2011-11-17 00:53:00
5:00 PM,-9999,-9999,N/A,29.62,1.8,SSW,11.5,18.4,0.00,,Overcast,210,2011-11-17 01:00:00
5:18 PM,-9999,-9999,N/A,29.61,2.5,SSW,11.5,24.2,0.03,Rain,Light Rain,210,2011-11-17 01:18:00
5:29 PM,-9999,-9999,N/A,29.60,3.0,SSW,15.0,23.0,0.04,Rain,Light Rain,210,2011-11-17 01:29:00
5:48 PM,-9999,-9999,N/A,29.59,1.8,SSW,13.8,31.1,0.05,,Unknown,210,2011-11-17 01:48:00
5:53 PM,-9999,-9999,N/A,29.59,1.5,SSW,10.4,31.1,0.08,,Unknown,210,2011-11-17 01:53:00
6:10 PM,-9999,-9999,N/A,29.58,3.0,SSW,16.1,25.3,0.02,Rain,Light Rain,210,2011-11-17 02:10:00
6:53 PM,-9999,-9999,N/A,29.56,5.0,SSW,16.1,29.9,0.05,Rain,Light Rain,200,2011-11-17 02:53:00
7:10 PM,-9999,-9999,N/A,29.56,1.8,SW,17.3,31.1,0.05,Rain,Heavy Rain,220,2011-11-17 03:10:00
7:20 PM,-9999,-9999,N/A,29.55,3.0,SW,21.9,27.6,0.10,Rain,Light Rain,220,2011-11-17 03:20:00
7:37 PM,-9999,-9999,N/A,29.57,1.8,WSW,18.4,27.6,0.10,,Unknown,250,2011-11-17 03:37:00
7:47 PM,-9999,-9999,N/A,29.57,4.0,WSW,18.4,27.6,0.16,Rain,Light Rain,240,2011-11-17 03:47:00
7:53 PM,-9999,-9999,N/A,29.57,7.0,WSW,16.1,25.3,0.16,Rain,Light Rain,240,2011-11-17 03:53:00
8:00 PM,-9999,-9999,N/A,-9999,-9999.0,North,-9999.0,-,N/A,,Unknown,0,2011-11-17 04:00:00
8:27 PM,-9999,-9999,N/A,29.59,10.0,West,17.3,31.1,0.02,Rain,Light Rain,270,2011-11-17 04:27:00
8:48 PM,-9999,-9999,N/A,29.60,10.0,West,12.7,24.2,0.03,,Overcast,260,2011-11-17 04:48:00
8:53 PM,-9999,-9999,N/A,29.60,10.0,West,15.0,24.2,0.03,,Overcast,270,2011-11-17 04:53:00
9:36 PM,-9999,-9999,N/A,29.63,10.0,WNW,12.7,19.6,0.00,,Overcast,290,2011-11-17 05:36:00
9:53 PM,-9999,-9999,N/A,29.63,10.0,West,11.5,21.9,0.00,,Overcast,270,2011-11-17 05:53:00
10:53 PM,-9999,-9999,N/A,29.67,5.0,West,18.4,32.2,0.00,Rain,Light Rain,270,2011-11-17 06:53:00
11:12 PM,-9999,-9999,N/A,29.68,4.0,West,18.4,32.2,0.02,Rain,Light Rain,270,2011-11-17 07:12:00
11:41 PM,-9999,-9999,N/A,29.69,8.0,West,11.5,24.2,0.07,Rain,Light Rain,260,2011-11-17 07:41:00
11:53 PM,-9999,-9999,N/A,29.69,7.0,West,10.4,24.2,0.07,Rain,Light Rain,280,2011-11-17 07:53:00